Time;durP1;ratioP1;P1;durP2;ratioP2;P2;SDS_P1;SDS_P2;PMS_P1;PMS_P2;Temp;Humidity;BMP_temperature;BMP_pressure;BME280_temperature;BME280_humidity;BME280_pressure;Samples;Min_cycle;Max_cycle;Signal;HPM_P1;HPM_P2
2023/06/23 00:01:22;;;;;;;8.25;5.45;;;22.10;99.90;;;;;;4991955;28;20031;-64
2023/06/23 00:03:48;;;;;;;8.50;4.80;;;22.10;99.90;;;;;;4996463;28;20026;-64
2023/06/23 00:06:15;;;;;;;6.50;4.40;;;22.10;99.90;;;;;;4994333;28;20034;-64
2023/06/23 00:08:41;;;;;;;11.23;5.50;;;22.10;99.90;;;;;;4997600;28;20048;-63
2023/06/23 00:11:07;;;;;;;10.93;5.07;;;21.90;99.90;;;;;;4988928;28;20026;-64
2023/06/23 00:13:34;;;;;;;13.27;5.75;;;21.80;99.90;;;;;;4999511;28;20116;-63
2023/06/23 00:16:01;;;;;;;7.63;4.78;;;21.80;99.90;;;;;;4997187;28;20021;-64
2023/06/23 00:18:27;;;;;;;8.35;5.00;;;21.80;99.90;;;;;;4991121;28;20078;-65
2023/06/23 00:20:54;;;;;;;7.65;5.35;;;21.80;99.90;;;;;;4995034;28;20038;-65
2023/06/23 00:23:20;;;;;;;6.05;5.28;;;21.80;99.90;;;;;;4995485;28;20029;-65
2023/06/23 00:25:46;;;;;;;8.25;4.85;;;21.80;99.90;;;;;;4999244;28;20057;-65
2023/06/23 00:28:11;;;;;;;6.75;5.30;;;21.80;99.90;;;;;;4999327;28;20045;-65
2023/06/23 00:30:37;;;;;;;9.07;4.90;;;21.80;99.90;;;;;;4987578;28;22439;-64
2023/06/23 00:33:03;;;;;;;12.45;5.60;;;21.80;99.90;;;;;;4994032;28;20537;-64
2023/06/23 00:35:28;;;;;;;10.65;5.63;;;21.90;99.90;;;;;;4993143;28;20117;-64
2023/06/23 00:37:54;;;;;;;10.73;5.30;;;21.80;99.90;;;;;;4992509;28;20041;-71
2023/06/23 00:40:22;;;;;;;8.52;5.15;;;21.80;99.90;;;;;;4992912;28;20066;-72
2023/06/23 00:42:53;;;;;;;8.80;5.47;;;21.80;99.90;;;;;;4995581;28;20037;-72
2023/06/23 00:45:19;;;;;;;8.43;5.40;;;21.80;99.90;;;;;;4983139;28;20030;-72
2023/06/23 00:47:45;;;;;;;7.65;5.28;;;21.80;99.90;;;;;;4984949;28;20044;-72
2023/06/23 00:50:17;;;;;;;10.13;5.57;;;21.80;99.90;;;;;;4990128;28;20045;-72
2023/06/23 00:52:52;;;;;;;8.15;5.63;;;21.80;99.90;;;;;;4977748;28;20050;-71
2023/06/23 00:55:21;;;;;;;8.80;5.55;;;21.80;99.90;;;;;;4991678;28;20044;-72
2023/06/23 00:57:49;;;;;;;7.07;5.32;;;21.80;99.90;;;;;;4992809;28;20663;-73
2023/06/23 01:00:18;;;;;;;12.15;6.68;;;21.70;99.90;;;;;;4993582;28;20426;-71
2023/06/23 01:02:49;;;;;;;8.55;5.50;;;21.70;99.90;;;;;;4990241;28;20065;-71
2023/06/23 01:05:20;;;;;;;7.80;6.00;;;21.60;99.90;;;;;;4990905;28;20023;-72
2023/06/23 01:07:52;;;;;;;6.75;5.50;;;21.70;99.90;;;;;;4992257;28;20510;-71
2023/06/23 01:10:32;;;;;;;9.90;5.78;;;21.70;99.90;;;;;;4993381;28;20041;-72
2023/06/23 01:13:06;;;;;;;8.00;6.18;;;21.70;99.90;;;;;;4992142;28;20667;-71
2023/06/23 01:15:36;;;;;;;5.80;5.20;;;21.70;99.90;;;;;;5002746;28;20049;-72
2023/06/23 01:18:13;;;;;;;7.55;5.93;;;21.70;99.90;;;;;;4993016;28;20033;-65
2023/06/23 01:20:41;;;;;;;7.88;6.20;;;21.70;99.90;;;;;;4989840;28;20581;-64
2023/06/23 01:23:34;;;;;;;7.30;6.35;;;21.70;99.90;;;;;;4989600;28;20809;-63
2023/06/23 01:26:21;;;;;;;14.55;7.25;;;21.70;99.90;;;;;;4991199;28;20103;-64
2023/06/23 01:29:07;;;;;;;9.05;6.15;;;21.60;99.90;;;;;;4994896;28;20069;-64
2023/06/23 01:32:16;;;;;;;12.95;6.45;;;21.60;99.90;;;;;;4989060;28;20030;-64
2023/06/23 01:34:45;;;;;;;6.93;6.22;;;21.50;99.90;;;;;;4993090;28;20410;-70
2023/06/23 01:37:17;;;;;;;7.53;6.43;;;21.50;99.90;;;;;;4994640;28;20029;-70
2023/06/23 01:39:47;;;;;;;9.73;7.07;;;21.50;99.90;;;;;;4992058;28;20038;-70
2023/06/23 01:42:17;;;;;;;9.27;6.68;;;21.40;99.90;;;;;;4994757;28;20034;-70
2023/06/23 01:44:47;;;;;;;10.73;6.60;;;21.40;99.90;;;;;;4989459;28;20924;-70
2023/06/23 01:47:22;;;;;;;10.05;6.22;;;21.50;99.90;;;;;;4990106;28;20598;-70
2023/06/23 01:49:51;;;;;;;7.28;6.57;;;21.50;99.90;;;;;;4990121;28;20034;-70
2023/06/23 01:52:18;;;;;;;10.63;7.00;;;21.50;99.90;;;;;;4994937;28;20041;-64
2023/06/23 01:54:45;;;;;;;13.95;7.10;;;21.50;99.90;;;;;;4990542;28;20068;-64
2023/06/23 01:57:15;;;;;;;9.02;6.65;;;21.50;99.90;;;;;;4991517;28;20030;-64
2023/06/23 01:59:42;;;;;;;11.73;7.70;;;21.50;99.90;;;;;;4988814;28;20046;-64
2023/06/23 02:02:10;;;;;;;9.88;7.72;;;21.40;99.90;;;;;;4988869;28;20061;-64
2023/06/23 02:04:39;;;;;;;9.60;7.18;;;21.50;99.90;;;;;;4995298;28;20049;-64
2023/06/23 02:07:06;;;;;;;13.25;8.50;;;21.50;99.90;;;;;;4990765;28;20062;-64
2023/06/23 02:09:35;;;;;;;9.85;7.25;;;21.60;99.90;;;;;;4997612;28;20059;-71
2023/06/23 02:12:03;;;;;;;8.52;7.60;;;21.60;99.90;;;;;;4986449;28;20598;-64
2023/06/23 02:14:30;;;;;;;10.82;7.60;;;21.60;99.90;;;;;;4998668;28;20021;-64
2023/06/23 02:16:57;;;;;;;10.75;8.15;;;21.60;99.90;;;;;;4990815;28;20033;-64
2023/06/23 02:19:25;;;;;;;11.73;7.82;;;21.70;99.90;;;;;;4993487;28;20045;-64
2023/06/23 02:21:52;;;;;;;9.88;7.50;;;21.70;99.90;;;;;;4993902;28;20544;-64
2023/06/23 02:24:18;;;;;;;8.60;7.65;;;21.70;99.90;;;;;;4995254;28;20030;-64
2023/06/23 02:26:45;;;;;;;12.02;8.30;;;21.70;99.90;;;;;;4997809;28;20172;-64
2023/06/23 02:29:12;;;;;;;10.48;8.18;;;21.70;99.90;;;;;;4994815;28;20122;-64
2023/06/23 02:31:37;;;;;;;10.35;8.05;;;21.70;99.90;;;;;;4993324;28;20033;-64
2023/06/23 02:34:03;;;;;;;10.05;7.88;;;21.70;99.90;;;;;;4997010;28;20045;-64
2023/06/23 02:36:43;;;;;;;14.98;8.20;;;21.70;99.90;;;;;;4989112;28;20088;-64
2023/06/23 02:39:13;;;;;;;11.35;8.02;;;21.70;99.90;;;;;;4996541;28;20025;-64
2023/06/23 02:41:40;;;;;;;10.52;7.72;;;21.60;99.90;;;;;;4996224;28;20045;-64
2023/06/23 02:44:14;;;;;;;12.10;8.13;;;21.60;99.90;;;;;;4990448;28;20068;-64
2023/06/23 02:46:43;;;;;;;10.10;7.38;;;21.60;99.90;;;;;;4986214;28;20137;-64
2023/06/23 02:49:14;;;;;;;10.40;7.90;;;21.60;99.90;;;;;;4992728;28;20431;-70
2023/06/23 02:51:43;;;;;;;12.30;8.70;;;21.60;99.90;;;;;;4995114;28;20176;-70
2023/06/23 02:54:12;;;;;;;9.07;8.18;;;21.60;99.90;;;;;;4995069;28;20165;-70
2023/06/23 02:56:42;;;;;;;12.73;8.60;;;21.50;99.90;;;;;;4996781;28;20036;-71
2023/06/23 02:59:12;;;;;;;10.63;7.65;;;21.50;99.90;;;;;;4997181;28;20100;-70
2023/06/23 03:01:40;;;;;;;9.32;8.30;;;21.50;99.90;;;;;;4995365;28;20554;-70
2023/06/23 03:04:06;;;;;;;10.07;7.85;;;21.50;99.90;;;;;;4990117;28;20088;-70
2023/06/23 03:06:35;;;;;;;9.93;8.68;;;21.50;99.90;;;;;;4995858;28;20449;-64
2023/06/23 03:09:06;;;;;;;10.77;8.55;;;21.50;99.90;;;;;;4994440;28;20497;-63
2023/06/23 03:11:33;;;;;;;11.75;8.90;;;21.50;99.90;;;;;;4996601;28;20023;-64
2023/06/23 03:14:00;;;;;;;9.02;8.18;;;21.50;99.90;;;;;;4993179;28;20145;-64
2023/06/23 03:16:39;;;;;;;12.70;9.23;;;21.60;99.90;;;;;;4991092;28;20112;-64
2023/06/23 03:19:24;;;;;;;11.20;8.70;;;21.60;99.90;;;;;;4990664;28;20649;-64
2023/06/23 03:21:58;;;;;;;9.70;8.65;;;21.70;99.90;;;;;;4992964;28;20101;-64
2023/06/23 03:24:26;;;;;;;14.20;8.95;;;21.70;99.90;;;;;;4993487;28;20034;-64
2023/06/23 03:26:57;;;;;;;13.50;9.48;;;21.70;99.90;;;;;;4995459;28;20339;-70
2023/06/23 03:29:26;;;;;;;10.45;9.40;;;21.70;99.90;;;;;;4991448;28;20149;-70
2023/06/23 03:31:56;;;;;;;15.20;9.25;;;21.70;99.90;;;;;;4991589;28;20026;-70
2023/06/23 03:34:23;;;;;;;12.77;9.55;;;21.80;99.90;;;;;;4994380;28;20040;-70
2023/06/23 03:36:50;;;;;;;13.45;9.02;;;21.90;99.90;;;;;;4995300;28;20123;-70
2023/06/23 03:39:23;;;;;;;13.85;8.55;;;21.90;99.90;;;;;;4993507;28;20068;-70
2023/06/23 03:41:49;;;;;;;10.52;7.60;;;21.90;99.90;;;;;;5013143;28;20505;-70
2023/06/23 03:44:30;;;;;;;12.10;8.23;;;21.90;99.90;;;;;;4994038;28;20057;-71
2023/06/23 03:47:03;;;;;;;9.38;8.57;;;21.80;99.90;;;;;;4990229;28;20042;-70
2023/06/23 03:49:35;;;;;;;10.40;8.88;;;21.80;99.90;;;;;;4997330;28;20068;-70
2023/06/23 03:52:03;;;;;;;14.88;9.88;;;21.80;99.90;;;;;;4993122;28;20034;-70
2023/06/23 03:54:30;;;;;;;10.45;9.35;;;21.90;99.90;;;;;;4993773;28;20555;-71
2023/06/23 03:56:59;;;;;;;9.93;8.75;;;21.90;99.90;;;;;;4991301;28;20437;-70
2023/06/23 03:59:27;;;;;;;15.43;8.65;;;21.90;99.90;;;;;;4989275;28;20036;-71
2023/06/23 04:01:54;;;;;;;11.05;9.70;;;21.90;99.90;;;;;;4989389;28;20030;-64
2023/06/23 04:04:21;;;;;;;11.32;9.23;;;22.00;99.90;;;;;;4996898;28;20031;-63
2023/06/23 04:06:48;;;;;;;9.70;8.77;;;22.00;99.90;;;;;;4995248;28;20026;-64
2023/06/23 04:09:17;;;;;;;11.60;9.63;;;22.10;99.90;;;;;;4992964;28;20033;-64
2023/06/23 04:11:45;;;;;;;14.95;9.90;;;22.10;99.90;;;;;;4992209;28;20072;-64
2023/06/23 04:14:13;;;;;;;12.75;10.20;;;22.10;99.90;;;;;;4991932;28;20053;-64
2023/06/23 04:16:41;;;;;;;17.38;11.65;;;22.20;99.90;;;;;;4985126;28;20096;-63
2023/06/23 04:19:11;;;;;;;12.13;10.93;;;22.20;99.90;;;;;;4989994;28;20112;-63
2023/06/23 04:21:38;;;;;;;11.23;10.15;;;22.30;99.90;;;;;;4993432;28;20030;-64
2023/06/23 04:24:06;;;;;;;14.13;10.57;;;22.30;99.90;;;;;;4995660;28;20129;-64
2023/06/23 04:26:34;;;;;;;12.50;10.18;;;22.40;99.90;;;;;;5008709;28;20045;-64
2023/06/23 04:29:04;;;;;;;13.38;11.10;;;22.50;99.90;;;;;;4992597;28;20522;-64
2023/06/23 04:31:32;;;;;;;13.32;10.57;;;22.50;99.90;;;;;;4991507;28;20026;-64
2023/06/23 04:33:58;;;;;;;13.60;10.80;;;22.60;99.90;;;;;;4987892;28;20036;-63
2023/06/23 04:36:29;;;;;;;12.40;10.57;;;22.70;99.90;;;;;;4985592;28;21410;-63
2023/06/23 04:39:08;;;;;;;11.35;10.25;;;22.70;99.90;;;;;;4983034;28;20026;-71
2023/06/23 04:41:37;;;;;;;11.07;10.07;;;22.70;99.90;;;;;;4994111;28;20034;-73
2023/06/23 04:44:07;;;;;;;11.02;9.98;;;22.80;99.90;;;;;;4990610;28;20109;-73
2023/06/23 04:46:37;;;;;;;11.02;9.50;;;22.80;99.90;;;;;;4989404;28;20026;-72
2023/06/23 04:49:07;;;;;;;11.05;10.02;;;22.90;99.90;;;;;;4996619;28;20037;-72
2023/06/23 04:51:38;;;;;;;15.18;10.88;;;23.00;99.90;;;;;;4991001;28;20584;-73
2023/06/23 04:54:14;;;;;;;10.60;9.63;;;23.10;99.90;;;;;;4992301;28;20045;-72
2023/06/23 04:56:41;;;;;;;11.98;9.98;;;23.20;99.90;;;;;;4996564;28;20033;-64
2023/06/23 04:59:09;;;;;;;11.15;10.05;;;23.30;99.90;;;;;;5000925;28;20091;-64
2023/06/23 05:01:35;;;;;;;14.15;11.02;;;23.30;99.90;;;;;;4992460;28;20029;-64
2023/06/23 05:04:05;;;;;;;11.38;10.30;;;23.40;99.90;;;;;;4995681;28;20033;-64
2023/06/23 05:06:34;;;;;;;11.60;10.20;;;23.50;99.90;;;;;;4996906;28;20831;-64
2023/06/23 05:09:00;;;;;;;12.02;10.50;;;23.60;99.90;;;;;;4993521;28;20044;-64
2023/06/23 05:11:27;;;;;;;12.73;10.57;;;23.60;99.90;;;;;;4993036;28;20026;-64
2023/06/23 05:13:53;;;;;;;12.20;10.70;;;23.70;99.90;;;;;;4995416;28;20033;-64
2023/06/23 05:16:21;;;;;;;12.50;11.30;;;23.80;99.90;;;;;;4990092;28;20029;-72
2023/06/23 05:18:48;;;;;;;11.98;10.77;;;23.80;99.90;;;;;;4990989;28;20065;-71
2023/06/23 05:21:17;;;;;;;12.25;10.35;;;23.90;99.90;;;;;;4999005;28;20042;-72
2023/06/23 05:23:46;;;;;;;10.90;9.90;;;24.00;99.90;;;;;;4996150;28;20026;-71
2023/06/23 05:26:14;;;;;;;19.13;10.07;;;24.10;99.90;;;;;;4994642;28;20072;-72
2023/06/23 05:28:41;;;;;;;15.18;8.73;;;24.10;99.90;;;;;;4996408;28;20045;-71
2023/06/23 05:31:08;;;;;;;11.02;8.40;;;24.20;99.90;;;;;;4988065;28;20057;-73
2023/06/23 05:33:37;;;;;;;9.52;8.40;;;24.30;99.90;;;;;;4991906;28;20301;-61
2023/06/23 05:36:07;;;;;;;9.13;8.23;;;24.30;99.90;;;;;;4990783;28;20462;-61
2023/06/23 05:38:36;;;;;;;8.52;7.70;;;24.40;99.90;;;;;;4985291;28;20443;-61
2023/06/23 05:41:02;;;;;;;10.65;8.18;;;24.50;99.90;;;;;;4989512;28;20045;-61
2023/06/23 05:43:28;;;;;;;10.70;8.18;;;24.60;99.90;;;;;;4983883;28;20033;-71
2023/06/23 05:45:54;;;;;;;8.65;7.65;;;24.60;99.90;;;;;;4983056;28;20029;-72
2023/06/23 05:48:32;;;;;;;11.30;8.57;;;24.60;99.90;;;;;;4988887;28;20053;-72
2023/06/23 05:51:00;;;;;;;9.43;8.52;;;24.60;99.90;;;;;;4997134;28;20128;-73
2023/06/23 05:53:28;;;;;;;9.98;7.75;;;24.60;99.90;;;;;;4999965;28;20045;-73
2023/06/23 05:56:15;;;;;;;9.05;8.20;;;24.60;99.90;;;;;;4996539;28;20117;-72
2023/06/23 05:58:45;;;;;;;8.80;8.00;;;24.70;99.90;;;;;;5001929;28;20057;-72
2023/06/23 06:01:15;;;;;;;9.50;8.10;;;24.80;99.90;;;;;;4990270;28;20058;-71
2023/06/23 06:03:47;;;;;;;8.73;7.80;;;24.80;99.90;;;;;;4996347;28;20573;-71
2023/06/23 06:06:15;;;;;;;9.43;7.88;;;24.90;99.90;;;;;;5000755;28;20022;-72
2023/06/23 06:08:42;;;;;;;9.23;7.78;;;24.90;99.90;;;;;;4999787;28;20041;-73
2023/06/23 06:11:10;;;;;;;9.73;8.73;;;25.00;99.90;;;;;;5003200;28;20040;-64
2023/06/23 06:13:43;;;;;;;9.00;7.65;;;25.00;99.90;;;;;;4998003;28;20494;-64
2023/06/23 06:16:10;;;;;;;8.00;7.20;;;25.10;99.90;;;;;;4998212;28;20022;-64
2023/06/23 06:18:38;;;;;;;8.88;7.25;;;25.10;99.90;;;;;;4995312;28;20821;-64
2023/06/23 06:21:04;;;;;;;7.97;7.28;;;25.10;99.90;;;;;;5000230;28;20941;-64
2023/06/23 06:23:31;;;;;;;8.48;7.53;;;25.10;99.90;;;;;;5003205;28;20022;-65
2023/06/23 06:25:58;;;;;;;8.80;7.63;;;25.20;99.90;;;;;;4998991;28;20648;-64
2023/06/23 06:28:26;;;;;;;8.63;7.75;;;25.30;99.90;;;;;;4995005;28;20041;-64
2023/06/23 06:30:54;;;;;;;8.95;7.95;;;25.40;99.90;;;;;;4993085;28;21149;-64
2023/06/23 06:33:21;;;;;;;8.45;7.53;;;25.50;99.90;;;;;;4986308;28;20026;-64
2023/06/23 06:35:48;;;;;;;9.00;8.20;;;25.50;99.90;;;;;;4997925;28;20032;-64
2023/06/23 06:38:16;;;;;;;8.40;7.47;;;25.60;99.90;;;;;;4998871;28;20108;-64
2023/06/23 06:40:46;;;;;;;8.68;7.88;;;25.60;99.90;;;;;;4999336;28;20018;-65
2023/06/23 06:43:12;;;;;;;8.25;7.55;;;25.70;99.90;;;;;;5000929;28;20030;-64
2023/06/23 06:45:37;;;;;;;9.90;7.78;;;25.70;99.90;;;;;;4991942;28;20037;-72
2023/06/23 06:48:04;;;;;;;8.13;7.43;;;25.70;99.90;;;;;;4996888;28;20037;-72
2023/06/23 06:50:32;;;;;;;8.35;7.65;;;25.80;99.90;;;;;;4996326;28;20179;-72
2023/06/23 06:52:58;;;;;;;8.77;7.97;;;25.90;99.90;;;;;;5000121;28;20037;-72
2023/06/23 06:55:25;;;;;;;8.38;7.53;;;26.00;99.90;;;;;;4997529;28;20478;-72
2023/06/23 06:57:51;;;;;;;10.23;8.43;;;26.00;99.90;;;;;;5001055;28;20503;-72
2023/06/23 07:00:19;;;;;;;8.57;7.75;;;26.00;99.90;;;;;;4997048;28;20122;-72
2023/06/23 07:02:45;;;;;;;8.27;7.43;;;26.00;99.90;;;;;;4996307;28;20364;-72
2023/06/23 07:05:12;;;;;;;8.55;7.43;;;26.10;99.90;;;;;;4993107;28;20045;-65
2023/06/23 07:07:38;;;;;;;11.73;10.25;;;26.20;99.90;;;;;;4995951;28;20033;-65
2023/06/23 07:10:04;;;;;;;9.13;8.20;;;26.30;99.90;;;;;;4993997;28;20053;-65
2023/06/23 07:12:31;;;;;;;9.15;8.30;;;26.40;99.90;;;;;;4998404;28;20395;-65
2023/06/23 07:14:57;;;;;;;12.02;8.10;;;26.40;99.90;;;;;;4998879;28;20030;-65
2023/06/23 07:17:22;;;;;;;9.85;8.05;;;26.40;99.90;;;;;;4988819;28;20044;-65
2023/06/23 07:19:48;;;;;;;9.82;7.57;;;26.30;99.90;;;;;;4997001;28;20030;-65
2023/06/23 07:22:14;;;;;;;9.57;8.23;;;26.30;99.90;;;;;;4995388;28;20747;-65
2023/06/23 07:24:40;;;;;;;8.93;8.07;;;26.40;99.90;;;;;;5001322;28;20498;-72
2023/06/23 07:27:07;;;;;;;9.65;8.40;;;26.50;99.90;;;;;;4998184;28;20054;-72
2023/06/23 07:29:33;;;;;;;10.20;9.23;;;26.60;99.90;;;;;;5002458;28;20026;-71
2023/06/23 07:32:01;;;;;;;9.60;8.60;;;26.60;99.90;;;;;;4996241;28;20072;-72
2023/06/23 07:34:28;;;;;;;10.15;9.18;;;26.60;99.90;;;;;;4994064;28;20753;-72
2023/06/23 07:36:53;;;;;;;10.18;8.95;;;26.60;99.90;;;;;;4992717;28;20026;-72
2023/06/23 07:39:19;;;;;;;8.80;8.00;;;26.70;99.90;;;;;;4998022;28;20095;-72
2023/06/23 07:41:45;;;;;;;9.60;8.68;;;26.70;99.90;;;;;;4996293;28;20120;-73
2023/06/23 07:44:10;;;;;;;9.02;8.18;;;26.80;99.90;;;;;;4999366;28;20092;-73
2023/06/23 07:46:36;;;;;;;9.90;8.88;;;26.90;99.90;;;;;;5001001;28;20042;-73
2023/06/23 07:49:01;;;;;;;11.40;9.60;;;26.90;99.90;;;;;;4997231;28;20060;-72
2023/06/23 07:51:27;;;;;;;12.15;9.45;;;27.00;99.90;;;;;;4997407;28;20050;-73
2023/06/23 07:53:53;;;;;;;10.50;9.43;;;27.00;99.90;;;;;;4991299;28;20124;-73
2023/06/23 07:56:18;;;;;;;10.45;9.55;;;27.10;99.90;;;;;;4996214;28;20054;-71
2023/06/23 07:58:44;;;;;;;10.63;9.52;;;27.10;99.90;;;;;;4999028;28;20025;-72
2023/06/23 08:01:12;;;;;;;10.65;9.65;;;27.10;99.90;;;;;;4996671;28;20038;-76
2023/06/23 08:03:37;;;;;;;11.20;9.50;;;27.10;99.90;;;;;;4997759;28;20041;-73
2023/06/23 08:06:03;;;;;;;16.35;10.82;;;27.10;99.90;;;;;;4993275;28;20406;-73
2023/06/23 08:08:29;;;;;;;11.23;10.13;;;27.10;99.90;;;;;;4989796;28;20046;-73
2023/06/23 08:10:54;;;;;;;10.82;9.73;;;27.10;99.90;;;;;;4996887;28;20045;-73
2023/06/23 08:13:20;;;;;;;10.82;9.70;;;27.10;99.90;;;;;;4993834;28;20033;-73
2023/06/23 08:15:46;;;;;;;12.02;10.23;;;27.20;99.90;;;;;;4998446;28;20045;-73
2023/06/23 08:18:12;;;;;;;12.60;10.40;;;27.30;99.90;;;;;;4999402;28;20061;-73
2023/06/23 08:20:38;;;;;;;11.40;10.30;;;27.40;99.90;;;;;;4995257;28;20089;-73
2023/06/23 08:23:04;;;;;;;11.98;10.50;;;27.50;99.90;;;;;;4994072;28;20156;-73
2023/06/23 08:25:29;;;;;;;11.88;10.23;;;27.60;99.90;;;;;;4994310;28;20034;-72
2023/06/23 08:27:55;;;;;;;11.63;10.52;;;27.60;99.90;;;;;;4999959;28;20033;-74
2023/06/23 08:30:29;;;;;;;11.10;9.93;;;27.70;99.90;;;;;;4996462;28;20062;-73
2023/06/23 08:32:55;;;;;;;14.38;10.27;;;27.60;99.90;;;;;;5000794;28;20041;-73
2023/06/23 08:35:21;;;;;;;13.10;10.30;;;27.80;99.90;;;;;;4998967;28;20029;-74
2023/06/23 08:37:47;;;;;;;13.57;10.73;;;27.80;99.90;;;;;;4998735;28;20038;-73
2023/06/23 08:40:14;;;;;;;12.35;11.10;;;27.90;99.90;;;;;;4981484;28;20317;-73
2023/06/23 08:42:39;;;;;;;10.88;10.00;;;28.00;99.90;;;;;;4993374;28;20033;-73
2023/06/23 08:45:07;;;;;;;12.27;10.23;;;28.10;99.90;;;;;;4994016;28;20069;-73
2023/06/23 08:47:37;;;;;;;11.95;10.52;;;28.00;99.90;;;;;;5002071;28;20053;-73
2023/06/23 08:50:04;;;;;;;11.45;10.30;;;28.00;99.90;;;;;;4996280;28;20111;-73
2023/06/23 08:52:29;;;;;;;11.02;10.07;;;28.00;99.90;;;;;;4997950;28;20041;-73
2023/06/23 08:54:55;;;;;;;12.80;10.73;;;28.10;99.90;;;;;;4993475;28;20391;-74
2023/06/23 08:57:21;;;;;;;10.75;9.85;;;28.10;99.90;;;;;;4983078;28;20550;-74
2023/06/23 08:59:47;;;;;;;13.93;11.10;;;28.20;99.90;;;;;;4987442;28;20029;-73
2023/06/23 09:02:12;;;;;;;11.98;10.73;;;28.20;99.90;;;;;;4989548;28;20213;-73
2023/06/23 09:04:39;;;;;;;11.35;10.25;;;28.30;99.90;;;;;;4992203;28;20998;-74
2023/06/23 09:07:05;;;;;;;11.63;10.43;;;28.40;99.90;;;;;;4995351;28;20038;-73
2023/06/23 09:09:30;;;;;;;11.02;10.13;;;28.40;99.90;;;;;;4998540;28;20057;-73
2023/06/23 09:11:58;;;;;;;12.07;10.82;;;28.40;99.90;;;;;;4999768;28;20040;-73
2023/06/23 09:14:29;;;;;;;10.73;9.73;;;28.50;99.90;;;;;;4998354;28;20045;-73
2023/06/23 09:16:55;;;;;;;11.77;10.23;;;28.60;99.90;;;;;;5000903;28;20832;-65
2023/06/23 09:19:22;;;;;;;12.80;10.88;;;28.60;99.90;;;;;;4998062;28;20494;-65
2023/06/23 09:21:48;;;;;;;11.20;10.13;;;28.60;99.90;;;;;;4999677;28;20115;-65
2023/06/23 09:24:14;;;;;;;12.32;11.13;;;28.70;99.90;;;;;;4996392;28;20033;-65
2023/06/23 09:26:51;;;;;;;11.35;10.25;;;28.70;99.90;;;;;;5001327;28;20053;-65
2023/06/23 09:29:16;;;;;;;13.75;10.63;;;28.70;99.90;;;;;;4997390;28;20030;-65
2023/06/23 09:31:43;;;;;;;12.05;10.00;;;28.80;99.90;;;;;;4999866;28;20552;-73
2023/06/23 09:34:08;;;;;;;12.32;10.52;;;28.80;99.90;;;;;;5001420;28;20029;-73
2023/06/23 09:36:37;;;;;;;12.07;10.23;;;28.90;99.90;;;;;;4999077;28;20021;-73
2023/06/23 09:39:03;;;;;;;11.00;9.85;;;28.90;99.90;;;;;;4997555;28;20037;-73
2023/06/23 09:41:33;;;;;;;11.20;9.85;;;29.00;99.90;;;;;;5000395;28;20808;-73
2023/06/23 09:43:59;;;;;;;11.68;10.57;;;29.00;99.90;;;;;;4996227;28;20038;-74
2023/06/23 09:46:32;;;;;;;12.27;10.63;;;29.10;99.90;;;;;;5001480;28;20044;-73
2023/06/23 09:49:00;;;;;;;14.85;9.73;;;29.10;99.90;;;;;;5003143;28;20042;-73
2023/06/23 09:51:26;;;;;;;10.30;9.13;;;29.10;99.90;;;;;;5003421;28;20117;-73
2023/06/23 09:53:51;;;;;;;10.93;9.30;;;29.10;99.90;;;;;;5000990;28;20021;-73
2023/06/23 09:56:19;;;;;;;11.38;10.27;;;29.00;99.90;;;;;;4997691;28;20030;-73
2023/06/23 09:58:46;;;;;;;13.38;9.77;;;29.00;99.90;;;;;;5001897;28;20215;-74
2023/06/23 10:01:13;;;;;;;12.48;11.18;;;29.00;99.90;;;;;;5002040;28;20117;-73
2023/06/23 10:03:46;;;;;;;14.80;10.52;;;29.00;99.90;;;;;;4999467;28;20112;-74
2023/06/23 10:06:32;;;;;;;12.18;10.25;;;29.00;99.90;;;;;;4986871;28;20049;-73
2023/06/23 10:08:59;;;;;;;10.55;9.55;;;29.00;99.90;;;;;;4991368;28;20041;-74
2023/06/23 10:11:28;;;;;;;12.30;9.70;;;29.00;99.90;;;;;;4986589;28;20034;-72
2023/06/23 10:13:55;;;;;;;10.80;9.80;;;29.00;99.90;;;;;;4988114;28;20065;-73
2023/06/23 10:16:20;;;;;;;10.93;9.93;;;29.10;99.90;;;;;;4989170;28;20026;-73
2023/06/23 10:18:47;;;;;;;11.13;10.02;;;29.10;99.90;;;;;;4987014;28;20048;-73
2023/06/23 10:21:12;;;;;;;10.52;9.55;;;29.30;99.90;;;;;;4991299;28;20120;-73
2023/06/23 10:23:39;;;;;;;15.43;10.48;;;29.40;99.90;;;;;;4990573;28;20099;-74
2023/06/23 10:26:06;;;;;;;10.35;9.45;;;29.40;99.90;;;;;;4994255;28;21060;-74
2023/06/23 10:28:36;;;;;;;11.68;9.93;;;29.50;99.90;;;;;;4996598;28;20394;-74
2023/06/23 10:31:05;;;;;;;16.45;10.70;;;29.60;99.90;;;;;;4996001;28;20111;-74
2023/06/23 10:33:34;;;;;;;12.75;10.77;;;29.70;99.90;;;;;;4989666;28;20037;-74
2023/06/23 10:36:06;;;;;;;11.18;10.07;;;29.80;99.90;;;;;;5000462;28;20030;-74
2023/06/23 10:38:33;;;;;;;12.00;10.70;;;29.90;99.90;;;;;;4997400;28;20064;-74
2023/06/23 10:41:00;;;;;;;15.02;10.52;;;29.90;99.90;;;;;;4999306;28;20736;-74
2023/06/23 10:43:31;;;;;;;12.32;10.43;;;29.90;99.90;;;;;;4994851;28;20034;-74
2023/06/23 10:45:59;;;;;;;11.57;10.25;;;29.80;99.90;;;;;;4998043;28;20022;-74
2023/06/23 10:48:26;;;;;;;11.95;10.70;;;29.70;99.90;;;;;;4997283;28;20042;-65
2023/06/23 10:50:52;;;;;;;11.55;10.32;;;29.70;99.90;;;;;;4997769;28;20041;-65
2023/06/23 10:53:24;;;;;;;13.70;9.95;;;29.60;99.90;;;;;;5001121;28;20045;-65
2023/06/23 10:55:56;;;;;;;11.00;10.00;;;29.60;99.90;;;;;;4999249;28;20046;-65
2023/06/23 10:58:21;;;;;;;14.77;10.85;;;29.70;99.90;;;;;;5002396;28;20030;-65
2023/06/23 11:00:53;;;;;;;11.50;10.45;;;29.80;99.90;;;;;;5000520;28;20045;-65
2023/06/23 11:03:35;;;;;;;12.68;10.25;;;29.90;99.90;;;;;;4998675;28;20936;-64
2023/06/23 11:06:09;;;;;;;12.82;11.32;;;29.90;99.90;;;;;;5002000;28;20084;-65
2023/06/23 11:08:39;;;;;;;12.18;10.85;;;29.90;99.90;;;;;;4998582;28;20112;-65
2023/06/23 11:11:10;;;;;;;11.40;10.40;;;30.00;99.90;;;;;;4998857;28;20116;-65
2023/06/23 11:13:45;;;;;;;11.10;10.00;;;29.90;99.90;;;;;;4997159;28;20679;-65
2023/06/23 11:16:15;;;;;;;11.98;10.77;;;29.90;99.90;;;;;;4993750;28;20026;-65
2023/06/23 11:18:59;;;;;;;14.07;10.95;;;29.90;99.90;;;;;;4992079;28;20026;-65
2023/06/23 11:21:30;;;;;;;12.85;11.23;;;29.90;99.90;;;;;;5001541;28;20109;-65
2023/06/23 11:24:16;;;;;;;12.88;10.43;;;30.00;99.90;;;;;;4985797;28;20508;-74
2023/06/23 11:26:54;;;;;;;11.38;10.27;;;30.00;99.90;;;;;;4984126;28;20154;-74
2023/06/23 11:29:24;;;;;;;12.95;10.90;;;30.10;99.90;;;;;;4995707;28;20414;-74
2023/06/23 11:32:11;;;;;;;12.35;10.27;;;30.20;99.90;;;;;;4990433;28;20057;-74
2023/06/23 11:35:00;;;;;;;13.93;10.48;;;30.10;99.90;;;;;;4996604;28;20029;-74
2023/06/23 11:37:28;;;;;;;11.82;10.63;;;30.10;99.90;;;;;;5000131;28;20029;-73
2023/06/23 11:39:55;;;;;;;18.15;11.02;;;30.00;99.90;;;;;;4982287;28;20061;-72
2023/06/23 11:42:22;;;;;;;12.50;11.20;;;30.00;99.90;;;;;;4997149;28;20058;-71
2023/06/23 11:44:48;;;;;;;11.73;10.52;;;29.90;99.90;;;;;;4991801;28;20057;-72
2023/06/23 11:47:14;;;;;;;11.80;10.50;;;29.90;99.90;;;;;;5000791;28;20069;-71
2023/06/23 11:49:40;;;;;;;12.10;11.00;;;29.90;99.90;;;;;;4999182;28;20126;-71
2023/06/23 11:52:07;;;;;;;12.77;11.20;;;29.90;99.90;;;;;;5000827;28;20140;-71
2023/06/23 11:54:35;;;;;;;15.20;10.98;;;29.80;99.90;;;;;;4997109;28;20022;-72
2023/06/23 11:57:05;;;;;;;13.23;10.90;;;29.70;99.90;;;;;;4990828;28;20031;-72
2023/06/23 11:59:38;;;;;;;15.40;11.25;;;29.80;99.90;;;;;;4998361;28;20116;-65
2023/06/23 12:02:05;;;;;;;13.07;11.40;;;29.80;99.90;;;;;;4995030;28;20475;-71
2023/06/23 12:04:31;;;;;;;12.15;10.77;;;29.80;99.90;;;;;;4988575;28;20037;-71
2023/06/23 12:06:59;;;;;;;13.63;10.95;;;29.80;99.90;;;;;;4985858;28;20035;-72
2023/06/23 12:09:29;;;;;;;12.07;10.85;;;29.80;99.90;;;;;;4987350;28;20121;-71
2023/06/23 12:11:56;;;;;;;12.85;11.40;;;29.80;99.90;;;;;;4987116;28;20506;-71
2023/06/23 12:14:29;;;;;;;14.75;11.38;;;29.80;99.90;;;;;;4994200;28;20173;-72
2023/06/23 12:17:07;;;;;;;14.68;10.70;;;29.80;99.90;;;;;;4992519;28;20029;-72
2023/06/23 12:19:33;;;;;;;17.38;11.75;;;29.70;99.90;;;;;;4996759;28;20037;-71
2023/06/23 12:22:00;;;;;;;11.45;10.35;;;29.70;99.90;;;;;;4998323;28;20464;-72
2023/06/23 12:24:28;;;;;;;12.95;11.43;;;29.70;99.90;;;;;;4997602;28;20077;-71
2023/06/23 12:26:54;;;;;;;14.52;10.88;;;29.70;99.90;;;;;;5002525;28;20044;-71
2023/06/23 12:29:21;;;;;;;11.18;9.85;;;29.80;99.90;;;;;;5001184;28;20057;-71
2023/06/23 12:31:57;;;;;;;15.65;10.88;;;29.90;99.90;;;;;;4994370;28;20627;-71
2023/06/23 12:34:31;;;;;;;11.90;10.30;;;29.90;99.90;;;;;;4995227;28;20657;-71
2023/06/23 12:37:13;;;;;;;15.95;11.25;;;30.00;99.90;;;;;;4999784;28;20502;-72
2023/06/23 12:39:38;;;;;;;;;;;30.00;99.90;;;;;;4997887;28;20045;-66
2023/06/23 12:42:07;;;;;;;14.52;11.07;;;30.10;99.90;;;;;;4997294;28;19913;-68
2023/06/23 12:44:32;;;;;;;14.75;11.90;;;30.00;99.90;;;;;;4997880;28;20042;-70